sensor_id;sensor_type;location;lat;lon;timestamp;P1;durP1;ratioP1;P2;durP2;ratioP2
61150;SDS011;47029;50.994;2.876;2023-02-15T00:01:46;67.75;;;31.83;;
61150;SDS011;47029;50.994;2.876;2023-02-15T00:04:15;69.50;;;33.15;;
61150;SDS011;47029;50.994;2.876;2023-02-15T00:06:42;72.20;;;32.60;;
61150;SDS011;47029;50.994;2.876;2023-02-15T00:09:08;68.05;;;32.85;;
61150;SDS011;47029;50.994;2.876;2023-02-15T00:11:35;66.80;;;31.77;;
61150;SDS011;47029;50.994;2.876;2023-02-15T00:14:19;71.87;;;33.10;;
61150;SDS011;47029;50.994;2.876;2023-02-15T00:16:49;70.20;;;32.78;;
61150;SDS011;47029;50.994;2.876;2023-02-15T00:19:20;73.07;;;33.42;;
61150;SDS011;47029;50.994;2.876;2023-02-15T00:21:46;73.28;;;32.67;;
61150;SDS011;47029;50.994;2.876;2023-02-15T00:24:13;78.00;;;35.10;;
61150;SDS011;47029;50.994;2.876;2023-02-15T00:26:40;78.65;;;36.10;;
61150;SDS011;47029;50.994;2.876;2023-02-15T00:29:07;80.70;;;36.97;;
61150;SDS011;47029;50.994;2.876;2023-02-15T00:31:34;75.50;;;35.63;;
61150;SDS011;47029;50.994;2.876;2023-02-15T00:34:03;78.78;;;35.78;;
61150;SDS011;47029;50.994;2.876;2023-02-15T00:36:30;73.15;;;34.75;;
61150;SDS011;47029;50.994;2.876;2023-02-15T00:38:56;83.75;;;35.10;;
61150;SDS011;47029;50.994;2.876;2023-02-15T00:41:22;74.57;;;35.08;;
61150;SDS011;47029;50.994;2.876;2023-02-15T00:43:48;67.97;;;32.80;;
61150;SDS011;47029;50.994;2.876;2023-02-15T00:46:14;64.30;;;30.98;;
61150;SDS011;47029;50.994;2.876;2023-02-15T00:48:41;62.10;;;29.48;;
61150;SDS011;47029;50.994;2.876;2023-02-15T00:51:07;65.57;;;30.35;;
61150;SDS011;47029;50.994;2.876;2023-02-15T00:53:33;64.28;;;31.50;;
61150;SDS011;47029;50.994;2.876;2023-02-15T00:55:59;77.97;;;33.53;;
61150;SDS011;47029;50.994;2.876;2023-02-15T00:58:25;65.32;;;32.25;;
61150;SDS011;47029;50.994;2.876;2023-02-15T01:00:51;73.68;;;33.85;;
61150;SDS011;47029;50.994;2.876;2023-02-15T01:03:18;66.45;;;32.40;;
61150;SDS011;47029;50.994;2.876;2023-02-15T01:05:46;68.25;;;32.80;;
61150;SDS011;47029;50.994;2.876;2023-02-15T01:08:12;68.78;;;31.42;;
61150;SDS011;47029;50.994;2.876;2023-02-15T01:10:38;63.05;;;30.48;;
61150;SDS011;47029;50.994;2.876;2023-02-15T01:13:04;72.72;;;33.45;;
61150;SDS011;47029;50.994;2.876;2023-02-15T01:15:30;79.72;;;33.22;;
61150;SDS011;47029;50.994;2.876;2023-02-15T01:17:55;85.57;;;35.30;;
61150;SDS011;47029;50.994;2.876;2023-02-15T01:20:22;75.95;;;34.40;;
61150;SDS011;47029;50.994;2.876;2023-02-15T01:22:49;76.22;;;32.92;;
61150;SDS011;47029;50.994;2.876;2023-02-15T01:25:16;104.87;;;36.08;;
61150;SDS011;47029;50.994;2.876;2023-02-15T01:27:45;133.05;;;36.35;;
61150;SDS011;47029;50.994;2.876;2023-02-15T01:30:15;80.78;;;35.17;;
61150;SDS011;47029;50.994;2.876;2023-02-15T01:32:41;100.07;;;36.25;;
61150;SDS011;47029;50.994;2.876;2023-02-15T01:35:08;76.50;;;31.98;;
61150;SDS011;47029;50.994;2.876;2023-02-15T01:37:34;71.50;;;34.38;;
61150;SDS011;47029;50.994;2.876;2023-02-15T01:40:01;102.00;;;35.55;;
61150;SDS011;47029;50.994;2.876;2023-02-15T01:42:28;338.33;;;54.88;;
61150;SDS011;47029;50.994;2.876;2023-02-15T01:47:38;77.57;;;35.20;;
61150;SDS011;47029;50.994;2.876;2023-02-15T01:50:10;73.70;;;34.92;;
61150;SDS011;47029;50.994;2.876;2023-02-15T01:52:38;80.18;;;34.40;;
61150;SDS011;47029;50.994;2.876;2023-02-15T01:55:10;76.50;;;34.60;;
61150;SDS011;47029;50.994;2.876;2023-02-15T01:57:37;89.50;;;33.92;;
61150;SDS011;47029;50.994;2.876;2023-02-15T02:00:07;67.22;;;31.62;;
61150;SDS011;47029;50.994;2.876;2023-02-15T02:02:34;69.40;;;32.70;;
61150;SDS011;47029;50.994;2.876;2023-02-15T02:05:01;70.82;;;32.15;;
61150;SDS011;47029;50.994;2.876;2023-02-15T02:07:31;69.18;;;30.83;;
61150;SDS011;47029;50.994;2.876;2023-02-15T02:09:59;75.60;;;33.20;;
61150;SDS011;47029;50.994;2.876;2023-02-15T02:12:26;68.28;;;32.05;;
61150;SDS011;47029;50.994;2.876;2023-02-15T02:14:51;68.22;;;31.95;;
61150;SDS011;47029;50.994;2.876;2023-02-15T02:17:24;64.87;;;30.30;;
61150;SDS011;47029;50.994;2.876;2023-02-15T02:26:11;72.43;;;31.87;;
61150;SDS011;47029;50.994;2.876;2023-02-15T02:34:16;84.00;;;34.30;;
61150;SDS011;47029;50.994;2.876;2023-02-15T02:42:40;73.28;;;33.17;;
61150;SDS011;47029;50.994;2.876;2023-02-15T02:45:25;73.05;;;32.05;;
61150;SDS011;47029;50.994;2.876;2023-02-15T02:48:06;72.65;;;33.42;;
61150;SDS011;47029;50.994;2.876;2023-02-15T02:50:38;72.37;;;33.30;;
61150;SDS011;47029;50.994;2.876;2023-02-15T02:53:05;73.82;;;33.08;;
61150;SDS011;47029;50.994;2.876;2023-02-15T03:01:05;125.38;;;33.83;;
61150;SDS011;47029;50.994;2.876;2023-02-15T03:06:11;105.65;;;34.15;;
61150;SDS011;47029;50.994;2.876;2023-02-15T03:08:48;132.45;;;35.85;;
61150;SDS011;47029;50.994;2.876;2023-02-15T03:11:18;89.62;;;32.90;;
61150;SDS011;47029;50.994;2.876;2023-02-15T03:13:44;223.45;;;42.83;;
61150;SDS011;47029;50.994;2.876;2023-02-15T03:16:14;126.57;;;36.97;;
61150;SDS011;47029;50.994;2.876;2023-02-15T03:21:49;80.95;;;33.45;;
61150;SDS011;47029;50.994;2.876;2023-02-15T03:27:25;87.55;;;34.28;;
61150;SDS011;47029;50.994;2.876;2023-02-15T03:29:57;78.72;;;33.08;;
61150;SDS011;47029;50.994;2.876;2023-02-15T03:32:25;90.38;;;34.40;;
61150;SDS011;47029;50.994;2.876;2023-02-15T03:34:53;71.03;;;30.90;;
61150;SDS011;47029;50.994;2.876;2023-02-15T03:46:26;61.90;;;29.17;;
61150;SDS011;47029;50.994;2.876;2023-02-15T03:51:46;71.78;;;31.12;;
61150;SDS011;47029;50.994;2.876;2023-02-15T03:54:19;67.10;;;29.85;;
61150;SDS011;47029;50.994;2.876;2023-02-15T04:00:06;57.62;;;29.02;;
61150;SDS011;47029;50.994;2.876;2023-02-15T04:03:12;69.22;;;29.70;;
61150;SDS011;47029;50.994;2.876;2023-02-15T04:05:40;66.12;;;31.33;;
61150;SDS011;47029;50.994;2.876;2023-02-15T04:08:11;72.75;;;31.92;;
61150;SDS011;47029;50.994;2.876;2023-02-15T04:10:37;70.82;;;31.98;;
61150;SDS011;47029;50.994;2.876;2023-02-15T04:13:19;71.57;;;31.30;;
61150;SDS011;47029;50.994;2.876;2023-02-15T04:15:48;74.25;;;32.03;;
61150;SDS011;47029;50.994;2.876;2023-02-15T04:18:33;70.50;;;33.38;;
61150;SDS011;47029;50.994;2.876;2023-02-15T04:21:25;73.43;;;32.97;;
61150;SDS011;47029;50.994;2.876;2023-02-15T04:26:56;73.37;;;32.15;;
61150;SDS011;47029;50.994;2.876;2023-02-15T04:29:22;74.03;;;34.38;;
61150;SDS011;47029;50.994;2.876;2023-02-15T04:31:50;73.65;;;33.00;;
61150;SDS011;47029;50.994;2.876;2023-02-15T04:34:16;76.05;;;32.67;;
61150;SDS011;47029;50.994;2.876;2023-02-15T04:36:42;70.87;;;33.20;;
61150;SDS011;47029;50.994;2.876;2023-02-15T04:39:08;65.28;;;31.55;;
61150;SDS011;47029;50.994;2.876;2023-02-15T04:41:36;78.25;;;32.75;;
61150;SDS011;47029;50.994;2.876;2023-02-15T04:44:02;75.70;;;35.22;;
61150;SDS011;47029;50.994;2.876;2023-02-15T04:46:28;74.75;;;33.22;;
61150;SDS011;47029;50.994;2.876;2023-02-15T04:48:54;75.43;;;33.65;;
61150;SDS011;47029;50.994;2.876;2023-02-15T04:51:20;70.00;;;32.53;;
61150;SDS011;47029;50.994;2.876;2023-02-15T04:53:46;69.18;;;32.50;;
61150;SDS011;47029;50.994;2.876;2023-02-15T04:56:12;72.72;;;32.40;;
61150;SDS011;47029;50.994;2.876;2023-02-15T04:58:38;71.50;;;31.42;;
61150;SDS011;47029;50.994;2.876;2023-02-15T05:01:06;69.68;;;31.45;;
61150;SDS011;47029;50.994;2.876;2023-02-15T05:03:33;65.20;;;30.98;;
61150;SDS011;47029;50.994;2.876;2023-02-15T05:06:02;69.40;;;31.12;;
61150;SDS011;47029;50.994;2.876;2023-02-15T05:08:28;63.95;;;29.58;;
61150;SDS011;47029;50.994;2.876;2023-02-15T05:10:54;62.13;;;28.33;;
61150;SDS011;47029;50.994;2.876;2023-02-15T05:13:20;62.88;;;28.33;;
61150;SDS011;47029;50.994;2.876;2023-02-15T05:15:49;62.25;;;29.23;;
61150;SDS011;47029;50.994;2.876;2023-02-15T05:18:16;62.45;;;30.62;;
61150;SDS011;47029;50.994;2.876;2023-02-15T05:20:43;70.20;;;31.05;;
61150;SDS011;47029;50.994;2.876;2023-02-15T05:23:09;66.30;;;30.58;;
61150;SDS011;47029;50.994;2.876;2023-02-15T05:25:35;68.00;;;31.85;;
61150;SDS011;47029;50.994;2.876;2023-02-15T05:28:22;71.37;;;31.80;;
61150;SDS011;47029;50.994;2.876;2023-02-15T05:31:05;69.05;;;31.75;;
61150;SDS011;47029;50.994;2.876;2023-02-15T05:33:38;72.40;;;32.78;;
61150;SDS011;47029;50.994;2.876;2023-02-15T05:36:05;67.78;;;30.17;;
61150;SDS011;47029;50.994;2.876;2023-02-15T05:38:31;67.37;;;31.58;;
61150;SDS011;47029;50.994;2.876;2023-02-15T05:40:57;69.60;;;30.80;;
61150;SDS011;47029;50.994;2.876;2023-02-15T05:43:23;72.60;;;30.90;;
61150;SDS011;47029;50.994;2.876;2023-02-15T05:45:50;62.22;;;30.85;;
61150;SDS011;47029;50.994;2.876;2023-02-15T05:48:18;72.00;;;31.45;;
61150;SDS011;47029;50.994;2.876;2023-02-15T05:50:45;62.80;;;30.40;;
61150;SDS011;47029;50.994;2.876;2023-02-15T05:53:11;63.50;;;29.50;;
61150;SDS011;47029;50.994;2.876;2023-02-15T05:55:40;67.20;;;30.58;;
61150;SDS011;47029;50.994;2.876;2023-02-15T05:58:06;64.62;;;30.65;;
61150;SDS011;47029;50.994;2.876;2023-02-15T06:00:33;68.97;;;31.00;;
61150;SDS011;47029;50.994;2.876;2023-02-15T06:02:59;63.67;;;30.10;;
61150;SDS011;47029;50.994;2.876;2023-02-15T06:05:25;70.90;;;32.83;;
61150;SDS011;47029;50.994;2.876;2023-02-15T06:07:50;69.87;;;33.53;;
61150;SDS011;47029;50.994;2.876;2023-02-15T06:10:16;89.37;;;35.33;;
61150;SDS011;47029;50.994;2.876;2023-02-15T06:12:43;86.15;;;36.55;;
61150;SDS011;47029;50.994;2.876;2023-02-15T06:15:09;82.18;;;36.05;;
61150;SDS011;47029;50.994;2.876;2023-02-15T06:17:35;88.15;;;36.63;;
61150;SDS011;47029;50.994;2.876;2023-02-15T06:20:03;79.10;;;34.47;;
61150;SDS011;47029;50.994;2.876;2023-02-15T06:22:29;65.93;;;32.35;;
61150;SDS011;47029;50.994;2.876;2023-02-15T06:24:55;66.78;;;30.55;;
61150;SDS011;47029;50.994;2.876;2023-02-15T06:27:23;67.50;;;30.42;;
61150;SDS011;47029;50.994;2.876;2023-02-15T06:29:48;70.18;;;31.65;;
61150;SDS011;47029;50.994;2.876;2023-02-15T06:32:17;65.55;;;30.90;;
61150;SDS011;47029;50.994;2.876;2023-02-15T06:34:42;72.62;;;32.38;;
61150;SDS011;47029;50.994;2.876;2023-02-15T06:37:08;75.50;;;33.95;;
61150;SDS011;47029;50.994;2.876;2023-02-15T06:39:34;80.80;;;34.42;;
61150;SDS011;47029;50.994;2.876;2023-02-15T06:41:59;78.53;;;34.15;;
61150;SDS011;47029;50.994;2.876;2023-02-15T06:44:25;72.82;;;32.88;;
61150;SDS011;47029;50.994;2.876;2023-02-15T06:46:51;74.30;;;33.03;;
61150;SDS011;47029;50.994;2.876;2023-02-15T06:49:16;72.30;;;32.35;;
61150;SDS011;47029;50.994;2.876;2023-02-15T06:51:45;71.20;;;32.88;;
61150;SDS011;47029;50.994;2.876;2023-02-15T06:54:10;70.45;;;33.33;;
61150;SDS011;47029;50.994;2.876;2023-02-15T06:56:36;80.35;;;30.98;;
61150;SDS011;47029;50.994;2.876;2023-02-15T06:59:02;69.10;;;31.55;;
61150;SDS011;47029;50.994;2.876;2023-02-15T07:01:27;67.80;;;30.58;;
61150;SDS011;47029;50.994;2.876;2023-02-15T07:03:53;67.35;;;30.40;;
61150;SDS011;47029;50.994;2.876;2023-02-15T07:06:19;65.25;;;28.60;;
61150;SDS011;47029;50.994;2.876;2023-02-15T07:08:44;67.90;;;29.33;;
61150;SDS011;47029;50.994;2.876;2023-02-15T07:11:10;65.65;;;28.95;;
61150;SDS011;47029;50.994;2.876;2023-02-15T07:13:54;63.55;;;29.20;;
61150;SDS011;47029;50.994;2.876;2023-02-15T07:16:20;64.75;;;29.63;;
61150;SDS011;47029;50.994;2.876;2023-02-15T07:18:46;71.97;;;32.38;;
61150;SDS011;47029;50.994;2.876;2023-02-15T07:21:12;68.68;;;30.62;;
61150;SDS011;47029;50.994;2.876;2023-02-15T07:23:38;76.28;;;32.67;;
61150;SDS011;47029;50.994;2.876;2023-02-15T07:26:06;77.45;;;33.05;;
61150;SDS011;47029;50.994;2.876;2023-02-15T07:28:33;78.22;;;32.08;;
61150;SDS011;47029;50.994;2.876;2023-02-15T07:31:03;68.25;;;30.70;;
61150;SDS011;47029;50.994;2.876;2023-02-15T07:33:35;62.85;;;29.20;;
61150;SDS011;47029;50.994;2.876;2023-02-15T07:36:01;66.12;;;30.80;;
61150;SDS011;47029;50.994;2.876;2023-02-15T07:38:32;73.15;;;30.67;;
61150;SDS011;47029;50.994;2.876;2023-02-15T07:41:04;72.72;;;30.40;;
61150;SDS011;47029;50.994;2.876;2023-02-15T07:43:32;64.50;;;30.98;;
61150;SDS011;47029;50.994;2.876;2023-02-15T07:46:00;67.22;;;30.62;;
61150;SDS011;47029;50.994;2.876;2023-02-15T07:48:27;66.47;;;31.55;;
61150;SDS011;47029;50.994;2.876;2023-02-15T07:50:56;72.22;;;30.58;;
61150;SDS011;47029;50.994;2.876;2023-02-15T07:53:24;66.45;;;29.05;;
61150;SDS011;47029;50.994;2.876;2023-02-15T07:55:49;66.95;;;29.83;;
61150;SDS011;47029;50.994;2.876;2023-02-15T07:58:17;60.25;;;28.62;;
61150;SDS011;47029;50.994;2.876;2023-02-15T08:00:43;57.08;;;29.27;;
61150;SDS011;47029;50.994;2.876;2023-02-15T08:03:25;61.92;;;30.00;;
61150;SDS011;47029;50.994;2.876;2023-02-15T08:05:58;59.67;;;29.05;;
61150;SDS011;47029;50.994;2.876;2023-02-15T08:08:25;64.18;;;29.58;;
61150;SDS011;47029;50.994;2.876;2023-02-15T08:11:39;62.45;;;29.00;;
61150;SDS011;47029;50.994;2.876;2023-02-15T08:14:12;58.95;;;27.35;;
61150;SDS011;47029;50.994;2.876;2023-02-15T08:16:39;66.47;;;28.55;;
61150;SDS011;47029;50.994;2.876;2023-02-15T08:19:10;61.92;;;30.55;;
61150;SDS011;47029;50.994;2.876;2023-02-15T08:21:37;65.85;;;30.75;;
61150;SDS011;47029;50.994;2.876;2023-02-15T08:24:05;68.50;;;30.58;;
61150;SDS011;47029;50.994;2.876;2023-02-15T08:26:32;58.47;;;29.10;;
61150;SDS011;47029;50.994;2.876;2023-02-15T08:28:59;65.07;;;29.55;;
61150;SDS011;47029;50.994;2.876;2023-02-15T08:31:25;63.55;;;29.35;;
61150;SDS011;47029;50.994;2.876;2023-02-15T08:33:52;64.82;;;30.15;;
61150;SDS011;47029;50.994;2.876;2023-02-15T08:36:20;68.43;;;30.25;;
61150;SDS011;47029;50.994;2.876;2023-02-15T08:38:47;63.50;;;30.27;;
61150;SDS011;47029;50.994;2.876;2023-02-15T08:43:46;68.35;;;30.73;;
61150;SDS011;47029;50.994;2.876;2023-02-15T08:46:13;73.20;;;30.10;;
61150;SDS011;47029;50.994;2.876;2023-02-15T08:48:40;72.12;;;31.37;;
61150;SDS011;47029;50.994;2.876;2023-02-15T08:51:08;64.85;;;29.10;;
61150;SDS011;47029;50.994;2.876;2023-02-15T08:53:43;67.40;;;31.62;;
61150;SDS011;47029;50.994;2.876;2023-02-15T08:56:10;65.95;;;30.40;;
61150;SDS011;47029;50.994;2.876;2023-02-15T08:58:37;72.45;;;31.87;;
61150;SDS011;47029;50.994;2.876;2023-02-15T09:01:10;68.00;;;31.40;;
61150;SDS011;47029;50.994;2.876;2023-02-15T09:03:42;61.72;;;30.95;;
61150;SDS011;47029;50.994;2.876;2023-02-15T09:06:09;62.42;;;30.95;;
61150;SDS011;47029;50.994;2.876;2023-02-15T09:08:36;69.05;;;31.12;;
61150;SDS011;47029;50.994;2.876;2023-02-15T09:11:12;67.97;;;31.58;;
61150;SDS011;47029;50.994;2.876;2023-02-15T09:13:38;66.35;;;31.75;;
61150;SDS011;47029;50.994;2.876;2023-02-15T09:16:05;73.87;;;33.28;;
61150;SDS011;47029;50.994;2.876;2023-02-15T09:18:33;66.55;;;32.13;;
61150;SDS011;47029;50.994;2.876;2023-02-15T09:23:41;73.65;;;31.08;;
61150;SDS011;47029;50.994;2.876;2023-02-15T09:26:12;68.80;;;31.55;;
61150;SDS011;47029;50.994;2.876;2023-02-15T09:28:39;68.30;;;30.20;;
61150;SDS011;47029;50.994;2.876;2023-02-15T09:33:40;68.25;;;29.92;;
61150;SDS011;47029;50.994;2.876;2023-02-15T09:36:18;62.00;;;31.05;;
61150;SDS011;47029;50.994;2.876;2023-02-15T09:38:47;61.88;;;29.85;;
61150;SDS011;47029;50.994;2.876;2023-02-15T09:54:55;65.57;;;28.10;;
61150;SDS011;47029;50.994;2.876;2023-02-15T09:57:36;59.20;;;27.35;;
61150;SDS011;47029;50.994;2.876;2023-02-15T10:03:18;64.55;;;30.77;;
61150;SDS011;47029;50.994;2.876;2023-02-15T10:11:03;59.78;;;29.55;;
61150;SDS011;47029;50.994;2.876;2023-02-15T10:17:06;60.78;;;29.80;;
61150;SDS011;47029;50.994;2.876;2023-02-15T10:28:10;56.33;;;27.58;;
61150;SDS011;47029;50.994;2.876;2023-02-15T10:30:51;58.38;;;28.85;;
61150;SDS011;47029;50.994;2.876;2023-02-15T10:36:31;59.13;;;28.90;;
61150;SDS011;47029;50.994;2.876;2023-02-15T10:41:59;55.80;;;28.40;;
61150;SDS011;47029;50.994;2.876;2023-02-15T10:50:46;55.40;;;27.65;;
61150;SDS011;47029;50.994;2.876;2023-02-15T11:01:55;51.85;;;26.77;;
61150;SDS011;47029;50.994;2.876;2023-02-15T11:09:50;54.25;;;27.62;;
61150;SDS011;47029;50.994;2.876;2023-02-15T11:12:37;54.90;;;27.35;;
61150;SDS011;47029;50.994;2.876;2023-02-15T11:15:18;55.28;;;28.15;;
61150;SDS011;47029;50.994;2.876;2023-02-15T11:17:59;59.13;;;29.02;;
61150;SDS011;47029;50.994;2.876;2023-02-15T11:20:35;55.95;;;27.17;;
61150;SDS011;47029;50.994;2.876;2023-02-15T11:23:12;60.30;;;28.00;;
61150;SDS011;47029;50.994;2.876;2023-02-15T11:25:41;51.65;;;27.45;;
61150;SDS011;47029;50.994;2.876;2023-02-15T11:28:17;52.65;;;27.23;;
61150;SDS011;47029;50.994;2.876;2023-02-15T11:30:50;53.65;;;27.08;;
61150;SDS011;47029;50.994;2.876;2023-02-15T11:33:29;53.72;;;27.45;;
61150;SDS011;47029;50.994;2.876;2023-02-15T11:36:09;53.47;;;26.75;;
61150;SDS011;47029;50.994;2.876;2023-02-15T11:38:42;55.70;;;27.60;;
61150;SDS011;47029;50.994;2.876;2023-02-15T11:41:10;52.45;;;26.65;;
61150;SDS011;47029;50.994;2.876;2023-02-15T11:46:51;56.63;;;27.48;;
61150;SDS011;47029;50.994;2.876;2023-02-15T11:49:22;48.97;;;25.48;;
61150;SDS011;47029;50.994;2.876;2023-02-15T11:51:50;54.47;;;25.60;;
61150;SDS011;47029;50.994;2.876;2023-02-15T11:54:19;49.83;;;24.63;;
61150;SDS011;47029;50.994;2.876;2023-02-15T11:56:51;46.70;;;24.80;;
61150;SDS011;47029;50.994;2.876;2023-02-15T11:59:26;51.15;;;25.58;;
61150;SDS011;47029;50.994;2.876;2023-02-15T12:01:56;48.07;;;24.27;;
61150;SDS011;47029;50.994;2.876;2023-02-15T12:04:23;50.17;;;25.98;;
61150;SDS011;47029;50.994;2.876;2023-02-15T12:07:04;44.20;;;23.83;;
61150;SDS011;47029;50.994;2.876;2023-02-15T12:09:49;48.33;;;23.98;;
61150;SDS011;47029;50.994;2.876;2023-02-15T12:12:30;39.22;;;21.70;;
61150;SDS011;47029;50.994;2.876;2023-02-15T12:15:02;46.17;;;22.55;;
61150;SDS011;47029;50.994;2.876;2023-02-15T12:17:33;48.22;;;23.15;;
61150;SDS011;47029;50.994;2.876;2023-02-15T12:20:01;43.35;;;22.08;;
61150;SDS011;47029;50.994;2.876;2023-02-15T12:25:24;45.50;;;23.92;;
61150;SDS011;47029;50.994;2.876;2023-02-15T12:27:57;41.03;;;21.62;;
61150;SDS011;47029;50.994;2.876;2023-02-15T12:30:25;39.20;;;20.52;;
61150;SDS011;47029;50.994;2.876;2023-02-15T12:33:43;42.72;;;21.62;;
61150;SDS011;47029;50.994;2.876;2023-02-15T12:36:12;44.83;;;22.55;;
61150;SDS011;47029;50.994;2.876;2023-02-15T12:39:01;39.45;;;21.83;;
61150;SDS011;47029;50.994;2.876;2023-02-15T12:41:27;41.72;;;22.75;;
61150;SDS011;47029;50.994;2.876;2023-02-15T12:44:03;43.03;;;24.27;;
61150;SDS011;47029;50.994;2.876;2023-02-15T12:47:04;46.37;;;22.30;;
61150;SDS011;47029;50.994;2.876;2023-02-15T12:52:29;41.60;;;21.20;;
61150;SDS011;47029;50.994;2.876;2023-02-15T12:55:09;44.50;;;22.42;;
61150;SDS011;47029;50.994;2.876;2023-02-15T12:57:42;41.67;;;22.23;;
61150;SDS011;47029;50.994;2.876;2023-02-15T13:08:12;44.65;;;22.98;;
61150;SDS011;47029;50.994;2.876;2023-02-15T13:10:42;41.08;;;22.33;;
61150;SDS011;47029;50.994;2.876;2023-02-15T13:15:48;48.87;;;23.67;;
61150;SDS011;47029;50.994;2.876;2023-02-15T13:18:16;45.85;;;24.50;;
61150;SDS011;47029;50.994;2.876;2023-02-15T13:20:48;47.83;;;23.52;;
61150;SDS011;47029;50.994;2.876;2023-02-15T13:25:49;42.62;;;22.35;;
61150;SDS011;47029;50.994;2.876;2023-02-15T13:28:16;43.85;;;22.30;;
61150;SDS011;47029;50.994;2.876;2023-02-15T13:30:48;50.58;;;23.65;;
61150;SDS011;47029;50.994;2.876;2023-02-15T13:33:25;44.50;;;23.95;;
61150;SDS011;47029;50.994;2.876;2023-02-15T13:51:38;47.90;;;23.98;;
61150;SDS011;47029;50.994;2.876;2023-02-15T14:08:31;44.47;;;24.17;;
61150;SDS011;47029;50.994;2.876;2023-02-15T14:16:39;40.53;;;22.33;;
61150;SDS011;47029;50.994;2.876;2023-02-15T14:19:30;44.55;;;23.50;;
61150;SDS011;47029;50.994;2.876;2023-02-15T14:24:43;46.22;;;24.05;;
61150;SDS011;47029;50.994;2.876;2023-02-15T14:27:13;40.95;;;23.17;;
61150;SDS011;47029;50.994;2.876;2023-02-15T14:32:20;44.75;;;23.55;;
61150;SDS011;47029;50.994;2.876;2023-02-15T14:35:09;45.20;;;23.83;;
61150;SDS011;47029;50.994;2.876;2023-02-15T14:47:16;46.15;;;24.70;;
61150;SDS011;47029;50.994;2.876;2023-02-15T14:52:02;53.78;;;27.40;;
61150;SDS011;47029;50.994;2.876;2023-02-15T15:04:40;49.05;;;26.75;;
61150;SDS011;47029;50.994;2.876;2023-02-15T15:07:20;49.97;;;25.70;;
61150;SDS011;47029;50.994;2.876;2023-02-15T15:10:00;46.63;;;25.62;;
61150;SDS011;47029;50.994;2.876;2023-02-15T15:15:00;44.58;;;25.33;;
61150;SDS011;47029;50.994;2.876;2023-02-15T15:20:11;52.72;;;26.33;;
61150;SDS011;47029;50.994;2.876;2023-02-15T15:22:43;50.53;;;27.48;;
61150;SDS011;47029;50.994;2.876;2023-02-15T15:27:57;49.92;;;26.02;;
61150;SDS011;47029;50.994;2.876;2023-02-15T15:32:51;46.15;;;26.30;;
61150;SDS011;47029;50.994;2.876;2023-02-15T15:49:39;48.40;;;25.10;;
61150;SDS011;47029;50.994;2.876;2023-02-15T15:52:13;50.20;;;24.40;;
61150;SDS011;47029;50.994;2.876;2023-02-15T15:54:51;43.85;;;23.77;;
61150;SDS011;47029;50.994;2.876;2023-02-15T16:00:00;46.20;;;22.95;;
61150;SDS011;47029;50.994;2.876;2023-02-15T16:02:26;40.67;;;21.62;;
61150;SDS011;47029;50.994;2.876;2023-02-15T16:04:52;40.20;;;21.75;;
61150;SDS011;47029;50.994;2.876;2023-02-15T16:07:30;42.40;;;22.20;;
61150;SDS011;47029;50.994;2.876;2023-02-15T16:10:04;40.30;;;22.25;;
61150;SDS011;47029;50.994;2.876;2023-02-15T16:12:35;43.80;;;22.42;;
61150;SDS011;47029;50.994;2.876;2023-02-15T16:15:17;41.05;;;22.13;;
61150;SDS011;47029;50.994;2.876;2023-02-15T16:17:47;40.95;;;22.60;;
61150;SDS011;47029;50.994;2.876;2023-02-15T16:20:33;45.35;;;23.52;;
61150;SDS011;47029;50.994;2.876;2023-02-15T16:25:56;41.58;;;24.15;;
61150;SDS011;47029;50.994;2.876;2023-02-15T16:28:31;44.25;;;23.92;;
61150;SDS011;47029;50.994;2.876;2023-02-15T16:33:39;49.30;;;25.20;;
61150;SDS011;47029;50.994;2.876;2023-02-15T16:36:10;46.60;;;26.00;;
61150;SDS011;47029;50.994;2.876;2023-02-15T16:41:29;49.33;;;25.55;;
61150;SDS011;47029;50.994;2.876;2023-02-15T16:43:56;50.53;;;25.75;;
61150;SDS011;47029;50.994;2.876;2023-02-15T16:46:28;47.70;;;25.30;;
61150;SDS011;47029;50.994;2.876;2023-02-15T16:49:02;47.50;;;25.15;;
61150;SDS011;47029;50.994;2.876;2023-02-15T16:51:32;52.83;;;28.27;;
61150;SDS011;47029;50.994;2.876;2023-02-15T16:54:03;52.50;;;27.35;;
61150;SDS011;47029;50.994;2.876;2023-02-15T16:56:32;50.50;;;26.17;;
61150;SDS011;47029;50.994;2.876;2023-02-15T16:58:59;59.65;;;32.47;;
61150;SDS011;47029;50.994;2.876;2023-02-15T17:01:29;71.75;;;36.67;;
61150;SDS011;47029;50.994;2.876;2023-02-15T17:09:52;57.67;;;32.42;;
61150;SDS011;47029;50.994;2.876;2023-02-15T17:18:24;76.22;;;39.90;;
61150;SDS011;47029;50.994;2.876;2023-02-15T17:20:55;61.75;;;32.92;;
61150;SDS011;47029;50.994;2.876;2023-02-15T17:23:40;52.50;;;27.23;;
61150;SDS011;47029;50.994;2.876;2023-02-15T17:26:41;56.33;;;33.53;;
61150;SDS011;47029;50.994;2.876;2023-02-15T17:31:39;74.87;;;41.78;;
61150;SDS011;47029;50.994;2.876;2023-02-15T17:34:04;56.45;;;30.60;;
61150;SDS011;47029;50.994;2.876;2023-02-15T17:36:30;55.50;;;30.25;;
61150;SDS011;47029;50.994;2.876;2023-02-15T17:41:26;58.38;;;33.38;;
61150;SDS011;47029;50.994;2.876;2023-02-15T17:43:53;68.32;;;38.20;;
61150;SDS011;47029;50.994;2.876;2023-02-15T17:46:19;56.78;;;29.15;;
61150;SDS011;47029;50.994;2.876;2023-02-15T17:48:51;53.20;;;30.45;;
61150;SDS011;47029;50.994;2.876;2023-02-15T17:51:20;63.10;;;30.08;;
61150;SDS011;47029;50.994;2.876;2023-02-15T17:53:48;57.03;;;30.62;;
61150;SDS011;47029;50.994;2.876;2023-02-15T17:56:33;63.85;;;34.00;;
61150;SDS011;47029;50.994;2.876;2023-02-15T17:59:00;73.82;;;38.83;;
61150;SDS011;47029;50.994;2.876;2023-02-15T18:01:25;57.28;;;31.48;;
61150;SDS011;47029;50.994;2.876;2023-02-15T18:04:11;62.65;;;32.60;;
61150;SDS011;47029;50.994;2.876;2023-02-15T18:06:56;75.15;;;41.53;;
61150;SDS011;47029;50.994;2.876;2023-02-15T18:09:41;73.37;;;41.03;;
61150;SDS011;47029;50.994;2.876;2023-02-15T18:12:29;56.28;;;29.75;;
61150;SDS011;47029;50.994;2.876;2023-02-15T18:14:57;56.95;;;30.55;;
61150;SDS011;47029;50.994;2.876;2023-02-15T18:17:26;58.70;;;31.55;;
61150;SDS011;47029;50.994;2.876;2023-02-15T18:19:54;63.80;;;36.10;;
61150;SDS011;47029;50.994;2.876;2023-02-15T18:22:20;63.75;;;32.05;;
61150;SDS011;47029;50.994;2.876;2023-02-15T18:24:47;63.87;;;32.25;;
61150;SDS011;47029;50.994;2.876;2023-02-15T18:27:13;58.53;;;30.27;;
61150;SDS011;47029;50.994;2.876;2023-02-15T18:29:40;59.28;;;30.02;;
61150;SDS011;47029;50.994;2.876;2023-02-15T18:32:07;64.10;;;31.30;;
